createdAt,value
2023-01-26T00:02:31.000Z,0
2023-01-26T00:05:16.000Z,0
2023-01-26T00:08:01.000Z,0
2023-01-26T00:09:19.000Z,0
2023-01-26T00:10:45.000Z,0
2023-01-26T00:13:30.000Z,0
2023-01-26T00:16:15.000Z,0
2023-01-26T00:18:59.000Z,0
2023-01-26T00:21:44.000Z,0
2023-01-26T00:24:29.000Z,0
2023-01-26T00:27:13.000Z,0
2023-01-26T00:29:58.000Z,0
2023-01-26T00:32:43.000Z,0
2023-01-26T00:35:27.000Z,0
2023-01-26T00:36:45.000Z,0
2023-01-26T00:38:12.000Z,0
2023-01-26T00:40:56.000Z,0
2023-01-26T00:43:41.000Z,0
2023-01-26T00:46:26.000Z,0
2023-01-26T00:49:10.000Z,0
2023-01-26T00:51:55.000Z,0
2023-01-26T00:54:40.000Z,0
2023-01-26T00:57:24.000Z,0
2023-01-26T01:00:09.000Z,0
2023-01-26T01:02:54.000Z,0
2023-01-26T01:04:12.000Z,0
2023-01-26T01:05:38.000Z,0
2023-01-26T01:11:08.000Z,0
2023-01-26T01:13:52.000Z,0
2023-01-26T01:16:37.000Z,0
2023-01-26T01:19:21.000Z,0
2023-01-26T01:22:06.000Z,0
2023-01-26T01:24:51.000Z,0
2023-01-26T01:27:35.000Z,0
2023-01-26T01:30:20.000Z,0
2023-01-26T01:31:38.000Z,0
2023-01-26T01:33:05.000Z,0
2023-01-26T01:35:49.000Z,0
2023-01-26T01:38:34.000Z,0
2023-01-26T01:41:19.000Z,0
2023-01-26T01:44:03.000Z,0
2023-01-26T01:46:48.000Z,0
2023-01-26T01:49:32.000Z,0
2023-01-26T01:52:17.000Z,0
2023-01-26T01:55:02.000Z,0
2023-01-26T01:57:46.000Z,0
2023-01-26T01:59:04.000Z,0
2023-01-26T02:00:31.000Z,0
2023-01-26T02:03:16.000Z,0
2023-01-26T02:06:00.000Z,0
2023-01-26T02:08:45.000Z,0
2023-01-26T02:11:30.000Z,0
2023-01-26T02:14:14.000Z,0
2023-01-26T02:16:59.000Z,0
2023-01-26T02:20:00.000Z,0
2023-01-26T02:22:45.000Z,0
2023-01-26T02:25:29.000Z,0
2023-01-26T02:26:47.000Z,0
2023-01-26T02:28:14.000Z,0
2023-01-26T02:30:58.000Z,0
2023-01-26T02:33:43.000Z,0
2023-01-26T02:36:28.000Z,0
2023-01-26T02:39:12.000Z,0
2023-01-26T02:41:57.000Z,0
2023-01-26T02:44:42.000Z,0
2023-01-26T02:47:26.000Z,0
2023-01-26T02:50:11.000Z,0
2023-01-26T02:52:56.000Z,0
2023-01-26T02:54:13.000Z,0
2023-01-26T02:55:40.000Z,0
2023-01-26T02:58:25.000Z,0
2023-01-26T03:01:10.000Z,0
2023-01-26T03:03:54.000Z,0
2023-01-26T03:06:39.000Z,0
2023-01-26T03:09:23.000Z,0
2023-01-26T03:12:08.000Z,0
2023-01-26T03:14:53.000Z,0
2023-01-26T03:17:37.000Z,0
2023-01-26T03:20:22.000Z,0
2023-01-26T03:21:40.000Z,0
2023-01-26T03:23:07.000Z,0
2023-01-26T03:25:51.000Z,0
2023-01-26T03:28:36.000Z,0
2023-01-26T03:31:21.000Z,0
2023-01-26T03:34:05.000Z,0
2023-01-26T03:36:50.000Z,0
2023-01-26T03:39:35.000Z,0
2023-01-26T03:42:19.000Z,0
2023-01-26T03:45:04.000Z,0
2023-01-26T03:47:48.000Z,0
2023-01-26T03:49:06.000Z,0
2023-01-26T03:50:33.000Z,0
2023-01-26T03:53:18.000Z,0
2023-01-26T03:56:02.000Z,0
2023-01-26T03:58:47.000Z,0
2023-01-26T04:01:32.000Z,0
2023-01-26T04:04:16.000Z,0
2023-01-26T04:07:01.000Z,0
2023-01-26T04:09:46.000Z,0
2023-01-26T04:12:30.000Z,0
2023-01-26T04:15:15.000Z,0
2023-01-26T04:16:33.000Z,0
2023-01-26T04:17:59.000Z,0
2023-01-26T04:20:44.000Z,0
2023-01-26T04:23:29.000Z,0
2023-01-26T04:26:13.000Z,0
2023-01-26T04:28:58.000Z,0
2023-01-26T04:31:43.000Z,0
2023-01-26T04:34:27.000Z,0
2023-01-26T04:37:12.000Z,0
2023-01-26T04:39:57.000Z,0
2023-01-26T04:42:41.000Z,0
2023-01-26T04:43:59.000Z,0
2023-01-26T04:45:26.000Z,0
2023-01-26T04:48:11.000Z,0
2023-01-26T04:50:55.000Z,0
2023-01-26T04:53:40.000Z,0
2023-01-26T04:56:24.000Z,0
2023-01-26T04:59:09.000Z,0
2023-01-26T05:01:54.000Z,0
2023-01-26T05:04:38.000Z,0
2023-01-26T05:07:23.000Z,0
2023-01-26T05:10:08.000Z,0
2023-01-26T05:11:25.000Z,0
2023-01-26T05:12:52.000Z,0
2023-01-26T05:15:37.000Z,0
2023-01-26T05:18:22.000Z,0
2023-01-26T05:21:06.000Z,0
2023-01-26T05:23:51.000Z,0
2023-01-26T05:26:36.000Z,0
2023-01-26T05:29:20.000Z,0
2023-01-26T05:32:05.000Z,0
2023-01-26T05:34:49.000Z,0
2023-01-26T05:37:34.000Z,0
2023-01-26T05:38:52.000Z,0
2023-01-26T05:40:19.000Z,0
2023-01-26T05:43:03.000Z,0
2023-01-26T05:45:48.000Z,0
2023-01-26T05:48:33.000Z,0
2023-01-26T05:51:17.000Z,0
2023-01-26T05:54:02.000Z,0
2023-01-26T05:56:47.000Z,0
2023-01-26T05:59:31.000Z,0
2023-01-26T06:02:16.000Z,0
2023-01-26T06:05:00.000Z,0
2023-01-26T06:06:18.000Z,0
2023-01-26T06:07:45.000Z,0
2023-01-26T06:10:30.000Z,0
2023-01-26T06:13:14.000Z,0
2023-01-26T06:15:59.000Z,0
2023-01-26T06:18:44.000Z,0
2023-01-26T06:21:28.000Z,0
2023-01-26T06:24:13.000Z,0
2023-01-26T06:26:58.000Z,0
2023-01-26T06:29:42.000Z,0
2023-01-26T06:32:27.000Z,0
2023-01-26T06:33:45.000Z,0
2023-01-26T06:35:12.000Z,0
2023-01-26T06:37:56.000Z,0
2023-01-26T06:40:41.000Z,0
2023-01-26T06:43:25.000Z,0
2023-01-26T06:46:10.000Z,0
2023-01-26T06:48:55.000Z,0
2023-01-26T06:51:39.000Z,0
2023-01-26T06:54:24.000Z,0
2023-01-26T06:57:09.000Z,0
2023-01-26T06:59:53.000Z,0
2023-01-26T07:01:11.000Z,0
2023-01-26T07:02:38.000Z,0
2023-01-26T07:05:23.000Z,0
2023-01-26T07:08:07.000Z,0
2023-01-26T07:10:52.000Z,0
2023-01-26T07:13:37.000Z,0
2023-01-26T07:16:21.000Z,0
2023-01-26T07:19:06.000Z,0
2023-01-26T07:21:50.000Z,0
2023-01-26T07:24:35.000Z,0
2023-01-26T07:27:20.000Z,0
2023-01-26T07:28:38.000Z,0
2023-01-26T07:30:04.000Z,0
2023-01-26T07:32:49.000Z,5
2023-01-26T07:35:34.000Z,5
2023-01-26T07:38:18.000Z,5
2023-01-26T07:41:03.000Z,5
2023-01-26T07:43:48.000Z,5
2023-01-26T07:46:32.000Z,11
2023-01-26T07:49:17.000Z,11
2023-01-26T07:52:02.000Z,11
2023-01-26T07:54:46.000Z,11
2023-01-26T07:56:04.000Z,11
2023-01-26T07:57:31.000Z,16
2023-01-26T08:00:15.000Z,16
2023-01-26T08:03:00.000Z,16
2023-01-26T08:05:45.000Z,22
2023-01-26T08:08:29.000Z,22
2023-01-26T08:11:14.000Z,22
2023-01-26T08:13:59.000Z,22
2023-01-26T08:16:43.000Z,22
2023-01-26T08:19:28.000Z,22
2023-01-26T08:22:13.000Z,28
2023-01-26T08:23:31.000Z,28
2023-01-26T08:24:57.000Z,28
2023-01-26T08:27:42.000Z,33
2023-01-26T08:30:26.000Z,39
2023-01-26T08:33:11.000Z,39
2023-01-26T08:35:56.000Z,45
2023-01-26T08:38:40.000Z,45
2023-01-26T08:44:10.000Z,45
2023-01-26T08:46:54.000Z,39
2023-01-26T08:49:39.000Z,45
2023-01-26T08:50:57.000Z,45
2023-01-26T08:52:24.000Z,45
2023-01-26T08:55:08.000Z,50
2023-01-26T09:00:38.000Z,45
2023-01-26T09:03:22.000Z,39
2023-01-26T09:06:07.000Z,33
2023-01-26T09:08:51.000Z,33
2023-01-26T09:11:36.000Z,45
2023-01-26T09:14:21.000Z,50
2023-01-26T09:17:05.000Z,61
2023-01-26T09:18:23.000Z,67
2023-01-26T09:19:50.000Z,73
2023-01-26T09:22:35.000Z,73
2023-01-26T09:25:19.000Z,78
2023-01-26T09:28:04.000Z,73
2023-01-26T09:30:49.000Z,67
2023-01-26T09:33:33.000Z,56
2023-01-26T09:36:18.000Z,56
2023-01-26T09:39:03.000Z,56
2023-01-26T09:41:47.000Z,73
2023-01-26T09:44:32.000Z,73
2023-01-26T09:45:50.000Z,67
2023-01-26T09:47:16.000Z,61
2023-01-26T09:50:01.000Z,67
2023-01-26T09:52:46.000Z,61
2023-01-26T09:55:30.000Z,61
2023-01-26T09:58:15.000Z,73
2023-01-26T10:01:00.000Z,67
2023-01-26T10:03:44.000Z,84
2023-01-26T10:06:29.000Z,90
2023-01-26T10:09:14.000Z,90
2023-01-26T10:11:58.000Z,78
2023-01-26T10:13:16.000Z,84
2023-01-26T10:14:43.000Z,78
2023-01-26T10:17:28.000Z,73
2023-01-26T10:20:12.000Z,73
2023-01-26T10:22:57.000Z,84
2023-01-26T10:25:41.000Z,78
2023-01-26T10:28:26.000Z,78
2023-01-26T10:31:11.000Z,78
2023-01-26T10:33:55.000Z,73
2023-01-26T10:36:40.000Z,67
2023-01-26T10:39:25.000Z,67
2023-01-26T10:40:43.000Z,73
2023-01-26T10:42:26.000Z,73
2023-01-26T10:45:10.000Z,73
2023-01-26T10:47:55.000Z,73
2023-01-26T10:50:40.000Z,67
2023-01-26T10:53:24.000Z,73
2023-01-26T10:56:09.000Z,73
2023-01-26T10:58:54.000Z,84
2023-01-26T11:01:38.000Z,73
2023-01-26T11:04:23.000Z,73
2023-01-26T11:07:07.000Z,73
2023-01-26T11:08:25.000Z,78
2023-01-26T11:09:52.000Z,73
2023-01-26T11:12:37.000Z,73
2023-01-26T11:15:21.000Z,84
2023-01-26T11:18:06.000Z,78
2023-01-26T11:20:51.000Z,78
2023-01-26T11:23:35.000Z,78
2023-01-26T11:26:20.000Z,73
2023-01-26T11:29:05.000Z,67
2023-01-26T11:31:49.000Z,67
2023-01-26T11:34:34.000Z,67
2023-01-26T11:35:52.000Z,61
2023-01-26T11:37:18.000Z,61
2023-01-26T11:40:03.000Z,61
2023-01-26T11:42:48.000Z,61
2023-01-26T11:45:32.000Z,67
2023-01-26T11:48:17.000Z,61
2023-01-26T11:51:02.000Z,67
2023-01-26T11:53:46.000Z,73
2023-01-26T11:56:31.000Z,67
2023-01-26T11:59:16.000Z,73
2023-01-26T12:02:00.000Z,73
2023-01-26T12:03:18.000Z,84
2023-01-26T12:04:45.000Z,90
2023-01-26T12:07:30.000Z,90
2023-01-26T12:10:14.000Z,90
2023-01-26T12:12:59.000Z,78
2023-01-26T12:15:43.000Z,67
2023-01-26T12:18:28.000Z,73
2023-01-26T12:21:13.000Z,78
2023-01-26T12:23:57.000Z,73
2023-01-26T12:26:42.000Z,78
2023-01-26T12:29:27.000Z,90
2023-01-26T12:30:44.000Z,84
2023-01-26T12:32:11.000Z,90
2023-01-26T12:34:56.000Z,90
2023-01-26T12:37:41.000Z,90
2023-01-26T12:40:25.000Z,101
2023-01-26T12:43:10.000Z,90
2023-01-26T12:45:55.000Z,84
2023-01-26T12:48:39.000Z,84
2023-01-26T12:51:24.000Z,73
2023-01-26T12:54:08.000Z,67
2023-01-26T12:56:53.000Z,67
2023-01-26T12:58:11.000Z,67
2023-01-26T12:59:38.000Z,67
2023-01-26T13:02:22.000Z,61
2023-01-26T13:05:07.000Z,61
2023-01-26T13:07:52.000Z,67
2023-01-26T13:10:36.000Z,67
2023-01-26T13:13:21.000Z,61
2023-01-26T13:16:06.000Z,73
2023-01-26T13:18:50.000Z,61
2023-01-26T13:21:35.000Z,73
2023-01-26T13:24:19.000Z,73
2023-01-26T13:25:37.000Z,67
2023-01-26T13:27:04.000Z,67
2023-01-26T13:29:49.000Z,73
2023-01-26T13:32:33.000Z,73
2023-01-26T13:38:03.000Z,84
2023-01-26T13:40:47.000Z,84
2023-01-26T13:43:32.000Z,84
2023-01-26T13:46:17.000Z,84
2023-01-26T13:49:01.000Z,78
2023-01-26T13:51:46.000Z,73
2023-01-26T13:53:04.000Z,67
2023-01-26T13:54:31.000Z,78
2023-01-26T13:57:15.000Z,84
2023-01-26T14:00:00.000Z,56
2023-01-26T14:02:44.000Z,56
2023-01-26T14:05:29.000Z,50
2023-01-26T14:08:14.000Z,67
2023-01-26T14:10:58.000Z,67
2023-01-26T14:13:43.000Z,73
2023-01-26T14:16:28.000Z,56
2023-01-26T14:19:12.000Z,67
2023-01-26T14:20:30.000Z,67
2023-01-26T14:21:57.000Z,67
2023-01-26T14:24:42.000Z,67
2023-01-26T14:27:26.000Z,67
2023-01-26T14:30:11.000Z,73
2023-01-26T14:32:56.000Z,73
2023-01-26T14:35:40.000Z,61
2023-01-26T14:38:25.000Z,56
2023-01-26T14:41:09.000Z,61
2023-01-26T14:43:54.000Z,50
2023-01-26T14:46:39.000Z,45
2023-01-26T14:47:57.000Z,50
2023-01-26T14:49:23.000Z,50
2023-01-26T14:52:08.000Z,50
2023-01-26T14:54:53.000Z,45
2023-01-26T14:57:37.000Z,45
2023-01-26T15:00:22.000Z,45
2023-01-26T15:03:07.000Z,45
2023-01-26T15:05:51.000Z,39
2023-01-26T15:08:36.000Z,39
2023-01-26T15:11:21.000Z,33
2023-01-26T15:14:05.000Z,28
2023-01-26T15:15:23.000Z,28
2023-01-26T15:16:50.000Z,22
2023-01-26T15:19:34.000Z,22
2023-01-26T15:22:19.000Z,22
2023-01-26T15:25:04.000Z,22
2023-01-26T15:27:48.000Z,16
2023-01-26T15:30:33.000Z,16
2023-01-26T15:33:18.000Z,16
2023-01-26T15:36:02.000Z,11
2023-01-26T15:38:47.000Z,11
2023-01-26T15:41:32.000Z,11
2023-01-26T15:42:49.000Z,11
2023-01-26T15:44:16.000Z,11
2023-01-26T15:47:01.000Z,11
2023-01-26T15:49:46.000Z,5
2023-01-26T15:52:30.000Z,5
2023-01-26T15:55:15.000Z,5
2023-01-26T15:57:59.000Z,5
2023-01-26T16:00:44.000Z,0
2023-01-26T16:03:29.000Z,0
2023-01-26T16:06:13.000Z,0
2023-01-26T16:08:58.000Z,0
2023-01-26T16:10:16.000Z,0
2023-01-26T16:11:43.000Z,0
2023-01-26T16:14:27.000Z,0
2023-01-26T16:17:12.000Z,0
2023-01-26T16:19:57.000Z,0
2023-01-26T16:22:41.000Z,0
2023-01-26T16:25:26.000Z,0
2023-01-26T16:28:11.000Z,0
2023-01-26T16:30:55.000Z,0
2023-01-26T16:33:40.000Z,0
2023-01-26T16:36:24.000Z,0
2023-01-26T16:37:42.000Z,0
2023-01-26T16:39:09.000Z,0
2023-01-26T16:41:54.000Z,0
2023-01-26T16:44:38.000Z,0
2023-01-26T16:47:23.000Z,0
2023-01-26T16:50:08.000Z,0
2023-01-26T16:52:52.000Z,0
2023-01-26T16:55:37.000Z,0
2023-01-26T16:58:22.000Z,0
2023-01-26T17:01:06.000Z,0
2023-01-26T17:03:51.000Z,0
2023-01-26T17:05:09.000Z,0
2023-01-26T17:06:36.000Z,0
2023-01-26T17:09:20.000Z,0
2023-01-26T17:12:05.000Z,0
2023-01-26T17:14:49.000Z,0
2023-01-26T17:17:34.000Z,0
2023-01-26T17:20:19.000Z,0
2023-01-26T17:23:03.000Z,0
2023-01-26T17:25:48.000Z,0
2023-01-26T17:28:33.000Z,0
2023-01-26T17:31:17.000Z,0
2023-01-26T17:32:35.000Z,0
2023-01-26T17:34:02.000Z,0
2023-01-26T17:36:47.000Z,0
2023-01-26T17:39:31.000Z,0
2023-01-26T17:42:16.000Z,0
2023-01-26T17:45:01.000Z,0
2023-01-26T17:47:45.000Z,0
2023-01-26T17:50:30.000Z,0
2023-01-26T17:53:14.000Z,0
2023-01-26T17:55:59.000Z,0
2023-01-26T17:58:44.000Z,0
2023-01-26T18:00:02.000Z,0
2023-01-26T18:01:28.000Z,0
2023-01-26T18:04:13.000Z,0
2023-01-26T18:06:58.000Z,0
2023-01-26T18:09:42.000Z,0
2023-01-26T18:12:27.000Z,0
2023-01-26T18:15:12.000Z,0
2023-01-26T18:17:56.000Z,0
2023-01-26T18:20:41.000Z,0
2023-01-26T18:23:25.000Z,0
2023-01-26T18:26:10.000Z,0
2023-01-26T18:27:28.000Z,0
2023-01-26T18:28:55.000Z,0
2023-01-26T18:31:39.000Z,0
2023-01-26T18:34:24.000Z,0
2023-01-26T18:37:09.000Z,0
2023-01-26T18:39:53.000Z,0
2023-01-26T18:42:38.000Z,0
2023-01-26T18:45:23.000Z,0
2023-01-26T18:48:07.000Z,0
2023-01-26T18:50:52.000Z,0
2023-01-26T18:53:37.000Z,0
2023-01-26T18:54:55.000Z,0
2023-01-26T18:56:21.000Z,0
2023-01-26T18:59:06.000Z,0
2023-01-26T19:02:07.000Z,0
2023-01-26T19:04:51.000Z,0
2023-01-26T19:07:36.000Z,0
2023-01-26T19:10:21.000Z,0
2023-01-26T19:13:05.000Z,0
2023-01-26T19:15:50.000Z,0
2023-01-26T19:18:35.000Z,0
2023-01-26T19:21:19.000Z,0
2023-01-26T19:22:37.000Z,0
2023-01-26T19:24:04.000Z,0
2023-01-26T19:26:49.000Z,0
2023-01-26T19:29:33.000Z,0
2023-01-26T19:32:18.000Z,0
2023-01-26T19:35:03.000Z,0
2023-01-26T19:37:47.000Z,0
2023-01-26T19:40:32.000Z,0
2023-01-26T19:43:16.000Z,0
2023-01-26T19:46:01.000Z,0
2023-01-26T19:48:46.000Z,0
2023-01-26T19:50:03.000Z,0
2023-01-26T19:51:30.000Z,0
2023-01-26T19:54:15.000Z,0
2023-01-26T19:57:00.000Z,0
2023-01-26T19:59:44.000Z,0
2023-01-26T20:02:29.000Z,0
2023-01-26T20:05:14.000Z,0
2023-01-26T20:07:58.000Z,0
2023-01-26T20:10:43.000Z,0
2023-01-26T20:13:28.000Z,0
2023-01-26T20:16:12.000Z,0
2023-01-26T20:17:30.000Z,0
2023-01-26T20:18:57.000Z,0
2023-01-26T20:21:41.000Z,0
2023-01-26T20:24:26.000Z,0
2023-01-26T20:27:11.000Z,0
2023-01-26T20:29:55.000Z,0
2023-01-26T20:32:40.000Z,0
2023-01-26T20:35:25.000Z,0
2023-01-26T20:38:09.000Z,0
2023-01-26T20:40:54.000Z,0
2023-01-26T20:43:39.000Z,0
2023-01-26T20:44:56.000Z,0
2023-01-26T20:46:23.000Z,0
2023-01-26T20:49:08.000Z,0
2023-01-26T20:51:53.000Z,0
2023-01-26T20:54:37.000Z,0
2023-01-26T20:57:22.000Z,0
2023-01-26T21:00:06.000Z,0
2023-01-26T21:02:51.000Z,0
2023-01-26T21:05:36.000Z,0
2023-01-26T21:08:20.000Z,0
2023-01-26T21:11:05.000Z,0
2023-01-26T21:12:23.000Z,0
2023-01-26T21:13:50.000Z,0
2023-01-26T21:16:34.000Z,0
2023-01-26T21:19:19.000Z,0
2023-01-26T21:22:04.000Z,0
2023-01-26T21:24:48.000Z,0
2023-01-26T21:27:33.000Z,0
2023-01-26T21:30:17.000Z,0
2023-01-26T21:33:02.000Z,0
2023-01-26T21:35:47.000Z,0
2023-01-26T21:38:31.000Z,0
2023-01-26T21:39:49.716Z,0
2023-01-26T21:41:16.000Z,0
2023-01-26T21:44:01.000Z,0
2023-01-26T21:46:45.000Z,0
2023-01-26T21:49:30.000Z,0
2023-01-26T21:52:15.000Z,0
2023-01-26T21:54:59.000Z,0
2023-01-26T21:57:44.000Z,0
2023-01-26T22:00:29.000Z,0
2023-01-26T22:03:13.000Z,0
2023-01-26T22:05:58.000Z,0
2023-01-26T22:07:16.000Z,0
2023-01-26T22:08:42.000Z,0
2023-01-26T22:11:27.000Z,0
2023-01-26T22:14:12.000Z,0
2023-01-26T22:16:56.000Z,0
2023-01-26T22:22:26.000Z,0
2023-01-26T22:25:10.000Z,0
2023-01-26T22:27:55.000Z,0
2023-01-26T22:30:40.000Z,0
2023-01-26T22:33:24.000Z,0
2023-01-26T22:34:42.000Z,0
2023-01-26T22:36:09.000Z,0
2023-01-26T22:38:54.000Z,0
2023-01-26T22:41:38.000Z,0
2023-01-26T22:44:23.000Z,0
2023-01-26T22:47:07.000Z,0
2023-01-26T22:49:52.000Z,0
2023-01-26T22:52:37.000Z,0
2023-01-26T22:55:21.000Z,0
2023-01-26T22:58:06.000Z,0
2023-01-26T23:00:51.000Z,0
2023-01-26T23:02:09.000Z,0
2023-01-26T23:03:35.000Z,0
2023-01-26T23:06:36.000Z,0
2023-01-26T23:09:21.000Z,0
2023-01-26T23:12:06.000Z,0
2023-01-26T23:14:50.000Z,0
2023-01-26T23:17:35.000Z,0
2023-01-26T23:20:20.000Z,0
2023-01-26T23:23:04.000Z,0
2023-01-26T23:25:49.000Z,0
2023-01-26T23:28:34.000Z,0
2023-01-26T23:29:51.000Z,0
2023-01-26T23:31:34.000Z,0
2023-01-26T23:34:19.000Z,0
2023-01-26T23:37:04.000Z,0
2023-01-26T23:39:48.000Z,0
2023-01-26T23:42:33.000Z,0
2023-01-26T23:45:18.000Z,0
2023-01-26T23:48:02.000Z,0
2023-01-26T23:50:47.000Z,0
2023-01-26T23:53:32.000Z,0
2023-01-26T23:56:16.000Z,0
2023-01-26T23:57:34.000Z,0
2023-01-26T23:59:01.000Z,0
